TimePDT,TemperatureF,Dew PointF,Humidity,Sea Level PressureIn,VisibilityMPH,Wind Direction,Wind SpeedMPH,Gust SpeedMPH,PrecipitationIn,Events,Conditions,WindDirDegrees,DateUTC
12:53 AM,63.0,57.9,84,29.98,10.0,WNW,6.9,-,N/A,,Clear,300,2013-07-24 07:53:00
1:53 AM,62.1,57.0,84,29.98,10.0,NW,6.9,-,N/A,,Clear,310,2013-07-24 08:53:00
2:53 AM,61.0,57.0,87,29.97,10.0,WNW,4.6,-,N/A,,Clear,300,2013-07-24 09:53:00
3:53 AM,61.0,57.9,90,29.96,10.0,Calm,Calm,-,N/A,,Clear,0,2013-07-24 10:53:00
4:53 AM,61.0,57.9,90,29.96,10.0,WNW,3.5,-,N/A,,Clear,290,2013-07-24 11:53:00
5:53 AM,60.1,57.0,90,29.97,10.0,NW,4.6,-,N/A,,Partly Cloudy,320,2013-07-24 12:53:00
6:53 AM,61.0,57.0,87,29.98,10.0,West,4.6,-,N/A,,Partly Cloudy,280,2013-07-24 13:53:00
7:53 AM,64.0,57.9,80,29.99,10.0,Calm,Calm,-,N/A,,Partly Cloudy,0,2013-07-24 14:53:00
8:53 AM,66.0,57.9,75,29.99,10.0,Calm,Calm,-,N/A,,Partly Cloudy,0,2013-07-24 15:53:00
9:53 AM,70.0,59.0,68,29.99,10.0,NW,6.9,-,N/A,,Clear,310,2013-07-24 16:53:00
10:53 AM,72.0,59.0,64,29.99,10.0,NNW,6.9,-,N/A,,Clear,330,2013-07-24 17:53:00
11:53 AM,75.9,57.0,52,29.97,10.0,NW,6.9,-,N/A,,Clear,310,2013-07-24 18:53:00
12:53 PM,81.0,51.1,35,29.96,10.0,NW,8.1,-,N/A,,Clear,320,2013-07-24 19:53:00
1:53 PM,82.9,48.0,29,29.95,10.0,WNW,10.4,-,N/A,,Clear,290,2013-07-24 20:53:00
2:53 PM,82.9,53.1,36,29.94,10.0,WNW,12.7,-,N/A,,Clear,300,2013-07-24 21:53:00
3:53 PM,82.0,53.1,37,29.92,10.0,WNW,12.7,-,N/A,,Clear,300,2013-07-24 22:53:00
4:53 PM,81.0,48.9,33,29.91,10.0,WNW,13.8,-,N/A,,Clear,290,2013-07-24 23:53:00
5:53 PM,80.1,51.1,36,29.91,10.0,WNW,12.7,-,N/A,,Clear,300,2013-07-25 00:53:00
6:53 PM,77.0,50.0,39,29.91,10.0,WNW,13.8,-,N/A,,Clear,290,2013-07-25 01:53:00
7:53 PM,72.0,53.1,51,29.91,10.0,West,11.5,-,N/A,,Clear,280,2013-07-25 02:53:00
8:53 PM,70.0,54.0,57,29.93,10.0,West,10.4,-,N/A,,Clear,280,2013-07-25 03:53:00
9:53 PM,68.0,54.0,61,29.95,10.0,WNW,9.2,-,N/A,,Clear,290,2013-07-25 04:53:00
10:53 PM,66.0,55.0,68,29.95,10.0,West,4.6,-,N/A,,Clear,270,2013-07-25 05:53:00
11:53 PM,64.9,55.0,70,29.96,10.0,Calm,Calm,-,N/A,,Clear,0,2013-07-25 06:53:00